createdAt,value
2022-08-07T00:02:37.131Z,17.10
2022-08-07T00:05:05.967Z,17.21
2022-08-07T00:07:40.317Z,17.13
2022-08-07T00:10:30.503Z,17.27
2022-08-07T00:13:09.750Z,17.18
2022-08-07T00:15:53.113Z,17.14
2022-08-07T00:18:23.944Z,17.15
2022-08-07T00:21:01.683Z,17.19
2022-08-07T00:23:33.857Z,17.11
2022-08-07T00:26:13.239Z,17.05
2022-08-07T00:28:56.813Z,17.13
2022-08-07T00:31:37.855Z,17.15
2022-08-07T00:34:10.268Z,17.18
2022-08-07T00:36:43.359Z,17.23
2022-08-07T00:39:16.869Z,17.30
2022-08-07T00:42:01.435Z,17.38
2022-08-07T00:44:34.561Z,17.47
2022-08-07T00:47:04.131Z,17.57
2022-08-07T00:50:20.390Z,17.70
2022-08-07T00:52:24.875Z,17.87
2022-08-07T00:54:54.330Z,18.01
2022-08-07T00:57:25.937Z,18.11
2022-08-07T00:59:55.377Z,18.15
2022-08-07T01:02:28.419Z,18.28
2022-08-07T01:05:00.727Z,18.30
2022-08-07T01:07:31.540Z,18.43
2022-08-07T01:10:06.946Z,18.48
2022-08-07T01:12:53.397Z,18.61
2022-08-07T01:16:00.853Z,18.62
2022-08-07T01:18:17.049Z,18.81
2022-08-07T01:21:22.574Z,18.81
2022-08-07T01:23:54.907Z,18.80
2022-08-07T01:26:26.252Z,18.77
2022-08-07T01:28:56.466Z,18.80
2022-08-07T01:31:41.982Z,18.80
2022-08-07T01:34:14.960Z,18.82
2022-08-07T01:36:52.643Z,18.88
2022-08-07T01:39:40.360Z,18.84
2022-08-07T01:42:57.358Z,18.85
2022-08-07T01:45:36.379Z,18.83
2022-08-07T01:48:29.352Z,18.84
2022-08-07T01:51:24.418Z,18.61
2022-08-07T01:54:11.977Z,18.33
2022-08-07T01:56:54.058Z,18.25
2022-08-07T01:59:45.144Z,18.25
2022-08-07T02:03:12.137Z,18.23
2022-08-07T02:05:15.845Z,18.15
2022-08-07T02:07:53.304Z,18.22
2022-08-07T02:10:33.744Z,18.03
2022-08-07T02:13:07.820Z,17.94
2022-08-07T02:15:53.121Z,18.04
2022-08-07T02:18:25.894Z,17.99
2022-08-07T02:21:00.994Z,18.06
2022-08-07T02:23:40.599Z,17.95
2022-08-07T02:26:31.695Z,17.98
2022-08-07T02:29:00.082Z,17.91
2022-08-07T02:31:32.608Z,17.86
2022-08-07T02:34:11.692Z,17.94
2022-08-07T02:36:53.675Z,17.88
2022-08-07T02:39:43.802Z,17.77
2022-08-07T02:42:18.546Z,17.77
2022-08-07T02:44:51.890Z,17.81
2022-08-07T02:47:23.917Z,17.80
2022-08-07T02:50:01.736Z,17.55
2022-08-07T02:53:10.914Z,17.73
2022-08-07T02:56:03.371Z,17.69
2022-08-07T02:58:39.799Z,17.63
2022-08-07T03:01:19.103Z,17.61
2022-08-07T03:04:12.637Z,17.70
2022-08-07T03:06:45.959Z,17.61
2022-08-07T03:09:44.697Z,17.70
2022-08-07T03:12:14.200Z,17.72
2022-08-07T03:14:56.873Z,17.62
2022-08-07T03:17:26.801Z,17.65
2022-08-07T03:19:57.642Z,17.67
2022-08-07T03:22:30.673Z,17.48
2022-08-07T03:25:01.496Z,17.65
2022-08-07T03:27:58.691Z,17.61
2022-08-07T03:30:28.667Z,17.55
2022-08-07T03:33:02.432Z,17.54
2022-08-07T03:35:43.660Z,17.49
2022-08-07T03:38:25.594Z,17.41
2022-08-07T03:41:02.138Z,17.39
2022-08-07T03:43:36.090Z,17.34
2022-08-07T03:46:10.547Z,17.36
2022-08-07T03:49:02.045Z,17.29
2022-08-07T03:51:47.765Z,17.35
2022-08-07T03:54:35.488Z,17.48
2022-08-07T03:59:05.551Z,17.57
2022-08-07T04:00:02.656Z,17.55
2022-08-07T04:02:47.137Z,17.59
2022-08-07T04:05:40.204Z,17.58
2022-08-07T04:08:21.106Z,17.64
2022-08-07T04:10:54.428Z,17.68
2022-08-07T04:14:09.873Z,17.75
2022-08-07T04:16:35.657Z,17.67
2022-08-07T04:19:15.245Z,17.74
2022-08-07T04:21:59.099Z,17.77
2022-08-07T04:24:38.782Z,17.90
2022-08-07T04:27:20.404Z,17.85
2022-08-07T04:30:01.244Z,18.01
2022-08-07T04:32:48.158Z,18.01
2022-08-07T04:35:35.278Z,18.05
2022-08-07T04:38:11.419Z,18.10
2022-08-07T04:40:51.796Z,18.12
2022-08-07T04:44:11.722Z,18.27
2022-08-07T04:47:08.269Z,18.36
2022-08-07T04:50:03.888Z,18.46
2022-08-07T04:52:51.761Z,18.38
2022-08-07T04:58:24.302Z,18.48
2022-08-07T04:58:49.675Z,18.60
2022-08-07T05:01:21.079Z,18.77
2022-08-07T05:04:28.054Z,18.79
2022-08-07T05:07:19.998Z,18.91
2022-08-07T05:10:11.142Z,19.02
2022-08-07T05:12:53.639Z,19.23
2022-08-07T05:15:32.091Z,19.25
2022-08-07T05:18:09.336Z,19.36
2022-08-07T05:20:47.533Z,19.42
2022-08-07T05:23:37.114Z,19.50
2022-08-07T05:26:18.718Z,19.55
2022-08-07T05:28:58.627Z,19.42
2022-08-07T05:31:39.525Z,19.71
2022-08-07T05:34:18.385Z,19.78
2022-08-07T05:36:52.934Z,19.78
2022-08-07T05:40:06.821Z,19.77
2022-08-07T05:42:34.261Z,19.95
2022-08-07T05:45:26.327Z,20.05
2022-08-07T05:48:03.317Z,20.11
2022-08-07T05:50:43.365Z,20.11
2022-08-07T05:54:12.816Z,20.14
2022-08-07T05:56:06.965Z,20.28
2022-08-07T05:58:52.417Z,20.22
2022-08-07T06:01:35.627Z,20.33
2022-08-07T06:04:09.175Z,20.35
2022-08-07T06:06:46.316Z,20.41
2022-08-07T06:09:19.283Z,20.48
2022-08-07T06:11:51.269Z,20.42
2022-08-07T06:14:28.588Z,20.37
2022-08-07T06:17:07.325Z,20.39
2022-08-07T06:19:51.876Z,20.43
2022-08-07T06:22:38.727Z,20.45
2022-08-07T06:25:26.534Z,20.58
2022-08-07T06:28:07.677Z,20.58
2022-08-07T06:30:42.742Z,20.71
2022-08-07T06:33:20.069Z,20.81
2022-08-07T06:36:06.889Z,20.84
2022-08-07T06:38:59.546Z,20.98
2022-08-07T06:42:01.666Z,21.23
2022-08-07T06:45:11.314Z,21.29
2022-08-07T06:47:48.307Z,21.42
2022-08-07T06:50:30.450Z,21.70
2022-08-07T06:53:04.200Z,21.73
2022-08-07T06:55:47.895Z,21.67
2022-08-07T06:58:28.814Z,21.56
2022-08-07T07:01:14.183Z,21.70
2022-08-07T07:03:49.244Z,21.64
2022-08-07T07:06:27.115Z,21.70
2022-08-07T07:08:56.856Z,22.02
2022-08-07T07:12:07.723Z,22.33
2022-08-07T07:14:19.025Z,22.69
2022-08-07T07:16:53.427Z,22.92
2022-08-07T07:19:55.923Z,22.88
2022-08-07T07:22:36.008Z,22.82
2022-08-07T07:26:30.687Z,22.68
2022-08-07T07:28:42.167Z,22.91
2022-08-07T07:31:44.150Z,23.22
2022-08-07T07:34:18.274Z,23.16
2022-08-07T07:36:53.845Z,23.28
2022-08-07T07:39:25.898Z,23.07
2022-08-07T07:42:17.624Z,23.29
2022-08-07T07:44:50.634Z,23.44
2022-08-07T07:47:23.632Z,23.37
2022-08-07T07:50:34.692Z,23.51
2022-08-07T07:52:46.918Z,23.54
2022-08-07T07:55:23.161Z,23.53
2022-08-07T07:57:58.162Z,23.34
2022-08-07T08:00:31.489Z,23.26
2022-08-07T08:03:09.016Z,23.33
2022-08-07T08:05:54.846Z,23.39
2022-08-07T08:08:35.238Z,23.45
2022-08-07T08:11:08.596Z,23.62
2022-08-07T08:13:55.176Z,23.74
2022-08-07T08:16:31.022Z,23.89
2022-08-07T08:19:17.990Z,23.64
2022-08-07T08:22:11.545Z,23.91
2022-08-07T08:25:18.690Z,24.07
2022-08-07T08:28:01.734Z,24.00
2022-08-07T08:30:42.484Z,24.02
2022-08-07T08:33:19.547Z,23.79
2022-08-07T08:35:56.350Z,23.63
2022-08-07T08:38:29.961Z,23.41
2022-08-07T08:41:05.520Z,23.42
2022-08-07T08:43:42.170Z,23.14
2022-08-07T08:46:38.642Z,23.16
2022-08-07T08:49:32.748Z,23.00
2022-08-07T08:52:25.148Z,22.72
2022-08-07T08:55:07.856Z,22.64
2022-08-07T08:57:45.213Z,22.68
2022-08-07T09:00:14.973Z,22.43
2022-08-07T09:02:53.543Z,22.46
2022-08-07T09:05:59.855Z,22.35
2022-08-07T09:09:30.133Z,22.24
2022-08-07T09:12:20.070Z,22.50
2022-08-07T09:16:21.617Z,22.65
2022-08-07T09:18:33.728Z,23.44
2022-08-07T09:21:57.940Z,23.80
2022-08-07T09:24:59.774Z,24.12
2022-08-07T09:28:03.102Z,24.38
2022-08-07T09:31:15.397Z,24.28
2022-08-07T09:34:33.184Z,24.10
2022-08-07T09:37:03.274Z,23.89
2022-08-07T09:40:00.586Z,23.57
2022-08-07T09:42:53.320Z,23.49
2022-08-07T09:47:24.644Z,23.27
2022-08-07T09:50:01.738Z,23.09
2022-08-07T09:52:10.809Z,22.81
2022-08-07T09:54:47.933Z,22.73
2022-08-07T09:57:53.719Z,22.59
2022-08-07T10:00:31.949Z,22.52
2022-08-07T10:04:04.943Z,22.37
2022-08-07T10:06:38.854Z,22.18
2022-08-07T10:09:59.071Z,22.03
2022-08-07T10:14:00.570Z,22.14
2022-08-07T10:17:01.103Z,22.31
2022-08-07T10:20:13.255Z,22.57
2022-08-07T10:23:02.711Z,22.72
2022-08-07T10:26:13.258Z,22.67
2022-08-07T10:29:02.647Z,22.56
2022-08-07T10:32:31.569Z,22.91
2022-08-07T10:35:14.882Z,23.21
2022-08-07T10:38:21.653Z,23.26
2022-08-07T10:41:07.611Z,23.33
2022-08-07T10:43:45.213Z,23.35
2022-08-07T10:46:20.410Z,23.52
2022-08-07T10:49:10.886Z,23.43
2022-08-07T10:52:02.121Z,23.36
2022-08-07T10:54:53.518Z,23.08
2022-08-07T10:57:39.585Z,22.87
2022-08-07T11:00:39.154Z,22.80
2022-08-07T11:03:20.871Z,22.82
2022-08-07T11:06:26.735Z,23.07
2022-08-07T11:08:58.292Z,23.14
2022-08-07T11:11:36.112Z,23.32
2022-08-07T11:14:45.488Z,23.36
2022-08-07T11:17:43.246Z,23.48
2022-08-07T11:20:27.350Z,23.45
2022-08-07T11:23:26.275Z,23.66
2022-08-07T11:26:06.346Z,23.52
2022-08-07T11:28:51.329Z,23.38
2022-08-07T11:31:47.708Z,23.41
2022-08-07T11:34:43.381Z,23.34
2022-08-07T11:37:58.443Z,23.37
2022-08-07T11:40:45.318Z,23.45
2022-08-07T11:43:41.589Z,23.46
2022-08-07T11:46:42.791Z,23.40
2022-08-07T11:49:51.155Z,23.38
2022-08-07T11:52:10.541Z,23.35
2022-08-07T11:55:13.171Z,23.41
2022-08-07T11:58:16.559Z,23.50
2022-08-07T12:01:20.150Z,23.39
2022-08-07T12:04:12.373Z,23.22
2022-08-07T12:07:03.033Z,22.93
2022-08-07T12:09:47.318Z,23.11
2022-08-07T12:12:25.008Z,23.19
2022-08-07T12:15:17.412Z,23.26
2022-08-07T12:18:30.667Z,23.21
2022-08-07T12:21:55.911Z,23.32
2022-08-07T12:24:37.934Z,23.41
2022-08-07T12:27:16.199Z,23.36
2022-08-07T12:29:51.582Z,23.38
2022-08-07T12:32:35.496Z,23.35
2022-08-07T12:35:08.333Z,23.38
2022-08-07T12:38:09.720Z,23.13
2022-08-07T12:40:50.453Z,23.19
2022-08-07T12:44:02.790Z,23.16
2022-08-07T12:46:26.653Z,23.26
2022-08-07T12:49:44.720Z,23.24
2022-08-07T12:52:46.160Z,23.26
2022-08-07T12:55:40.834Z,23.22
2022-08-07T12:58:15.350Z,23.13
2022-08-07T13:00:51.604Z,23.08
2022-08-07T13:04:02.553Z,22.99
2022-08-07T13:06:54.205Z,22.83
2022-08-07T13:10:20.931Z,22.76
2022-08-07T13:13:12.025Z,22.61
2022-08-07T13:16:11.521Z,22.40
2022-08-07T13:18:58.041Z,22.23
2022-08-07T13:21:37.830Z,22.00
2022-08-07T13:24:31.666Z,21.88
2022-08-07T13:27:12.749Z,21.73
2022-08-07T13:29:59.185Z,21.55
2022-08-07T13:32:38.270Z,21.49
2022-08-07T13:35:15.819Z,21.32
2022-08-07T13:37:59.000Z,21.33
2022-08-07T13:40:43.235Z,21.29
2022-08-07T13:43:15.243Z,21.02
2022-08-07T13:46:20.895Z,21.11
2022-08-07T13:48:40.811Z,21.08
2022-08-07T13:51:28.533Z,21.10
2022-08-07T13:54:07.311Z,21.06
2022-08-07T13:56:41.363Z,21.07
2022-08-07T13:59:25.279Z,21.08
2022-08-07T14:02:08.437Z,21.09
2022-08-07T14:04:56.545Z,20.94
2022-08-07T14:07:31.574Z,21.03
2022-08-07T14:10:21.608Z,20.95
2022-08-07T14:13:00.721Z,20.97
2022-08-07T14:15:39.515Z,20.89
2022-08-07T14:18:24.114Z,20.52
2022-08-07T14:22:00.458Z,20.74
2022-08-07T14:24:22.972Z,20.57
2022-08-07T14:26:59.784Z,20.59
2022-08-07T14:30:09.527Z,20.48
2022-08-07T14:32:24.937Z,20.42
2022-08-07T14:34:55.844Z,20.34
2022-08-07T14:37:35.996Z,20.20
2022-08-07T14:40:15.752Z,20.33
2022-08-07T14:43:01.167Z,20.32
2022-08-07T14:45:51.071Z,20.26
2022-08-07T14:48:28.355Z,20.25
2022-08-07T14:51:20.676Z,19.95
2022-08-07T14:54:09.847Z,20.10
2022-08-07T14:56:44.607Z,20.04
2022-08-07T15:00:03.738Z,19.92
2022-08-07T15:02:31.739Z,19.80
2022-08-07T15:05:20.234Z,19.81
2022-08-07T15:10:58.649Z,19.63
2022-08-07T15:16:33.558Z,19.33
2022-08-07T15:22:04.666Z,19.59
2022-08-07T15:25:14.834Z,19.50
2022-08-07T15:27:31.583Z,19.50
2022-08-07T15:33:03.820Z,19.43
2022-08-07T15:44:18.287Z,19.28
2022-08-07T15:46:56.773Z,19.22
2022-08-07T15:52:30.186Z,19.32
2022-08-07T15:55:03.753Z,19.35
2022-08-07T15:57:40.120Z,19.23
2022-08-07T16:00:31.133Z,19.06
2022-08-07T16:03:03.525Z,19.11
2022-08-07T16:05:34.144Z,19.10
2022-08-07T16:08:32.925Z,19.12
2022-08-07T16:11:26.702Z,19.16
2022-08-07T16:14:12.504Z,19.12
2022-08-07T16:16:57.114Z,19.10
2022-08-07T16:19:58.736Z,19.02
2022-08-07T16:22:55.173Z,18.95
2022-08-07T16:25:54.424Z,19.00
2022-08-07T16:30:08.756Z,18.84
2022-08-07T16:31:51.046Z,18.91
2022-08-07T16:34:45.515Z,18.81
2022-08-07T16:38:03.934Z,18.78
2022-08-07T16:40:31.856Z,18.79
2022-08-07T16:43:12.393Z,18.72
2022-08-07T16:46:34.587Z,18.82
2022-08-07T16:50:27.148Z,18.58
2022-08-07T16:52:41.707Z,18.71
2022-08-07T16:55:08.370Z,18.67
2022-08-07T16:58:15.902Z,18.56
2022-08-07T17:01:22.929Z,18.56
2022-08-07T17:03:59.422Z,18.53
2022-08-07T17:07:04.021Z,18.61
2022-08-07T17:10:06.503Z,18.61
2022-08-07T17:12:44.052Z,18.58
2022-08-07T17:15:17.126Z,18.57
2022-08-07T17:17:49.302Z,18.56
2022-08-07T17:20:39.819Z,18.55
2022-08-07T17:23:37.703Z,18.51
2022-08-07T17:26:22.517Z,18.53
2022-08-07T17:29:04.541Z,18.40
2022-08-07T17:32:03.344Z,18.44
2022-08-07T17:35:50.341Z,18.41
2022-08-07T17:38:32.135Z,18.41
2022-08-07T17:42:00.637Z,18.28
2022-08-07T17:44:41.431Z,18.38
2022-08-07T17:47:38.612Z,18.37
2022-08-07T17:50:54.046Z,18.31
2022-08-07T17:54:01.081Z,18.32
2022-08-07T17:56:26.033Z,18.26
2022-08-07T17:58:57.786Z,18.23
2022-08-07T18:01:51.086Z,18.12
2022-08-07T18:04:31.130Z,18.17
2022-08-07T18:07:20.942Z,18.13
2022-08-07T18:10:32.671Z,17.81
2022-08-07T18:13:20.602Z,17.81
2022-08-07T18:16:31.118Z,17.97
2022-08-07T18:21:03.666Z,17.91
2022-08-07T18:22:17.021Z,17.85
2022-08-07T18:24:51.989Z,17.81
2022-08-07T18:27:39.638Z,17.76
2022-08-07T18:30:31.875Z,17.78
2022-08-07T18:33:18.316Z,17.68
2022-08-07T18:36:32.806Z,17.62
2022-08-07T18:40:08.011Z,17.52
2022-08-07T18:42:19.442Z,17.48
2022-08-07T18:45:42.929Z,17.46
2022-08-07T18:50:06.766Z,17.43
2022-08-07T18:51:11.965Z,17.46
2022-08-07T18:54:05.599Z,17.45
2022-08-07T18:57:29.492Z,17.39
2022-08-07T19:00:32.662Z,17.30
2022-08-07T19:03:38.970Z,17.21
2022-08-07T19:06:16.826Z,17.27
2022-08-07T19:08:54.964Z,17.24
2022-08-07T19:11:34.865Z,17.10
2022-08-07T19:14:20.072Z,17.11
2022-08-07T19:17:04.802Z,17.07
2022-08-07T19:20:29.912Z,17.09
2022-08-07T19:23:18.413Z,16.90
2022-08-07T19:26:25.326Z,16.87
2022-08-07T19:30:58.031Z,16.86
2022-08-07T19:32:09.701Z,16.83
2022-08-07T19:34:36.233Z,16.66
2022-08-07T19:37:55.361Z,16.79
2022-08-07T19:40:30.584Z,16.71
2022-08-07T19:43:02.822Z,16.73
2022-08-07T19:46:05.320Z,16.64
2022-08-07T19:48:43.902Z,16.64
2022-08-07T19:51:50.465Z,16.46
2022-08-07T19:54:33.669Z,16.60
2022-08-07T19:58:02.755Z,16.52
2022-08-07T20:00:02.129Z,16.43
2022-08-07T20:02:51.899Z,16.42
2022-08-07T20:05:29.554Z,16.49
2022-08-07T20:08:02.838Z,16.38
2022-08-07T20:10:54.445Z,16.33
2022-08-07T20:13:33.698Z,16.32
2022-08-07T20:16:04.501Z,16.27
2022-08-07T20:18:35.126Z,16.17
2022-08-07T20:21:14.359Z,16.26
2022-08-07T20:23:53.537Z,16.19
2022-08-07T20:26:32.212Z,16.20
2022-08-07T20:29:10.166Z,15.97
2022-08-07T20:31:46.556Z,16.14
2022-08-07T20:34:40.037Z,16.00
2022-08-07T20:37:10.351Z,15.99
2022-08-07T20:40:02.757Z,16.00
2022-08-07T20:42:35.329Z,16.02
2022-08-07T20:45:33.640Z,16.01
2022-08-07T20:47:58.801Z,15.90
2022-08-07T20:50:30.622Z,15.66
2022-08-07T20:53:01.877Z,15.90
2022-08-07T20:55:35.973Z,15.82
2022-08-07T20:58:11.990Z,15.88
2022-08-07T21:00:45.075Z,15.80
2022-08-07T21:03:19.278Z,15.83
2022-08-07T21:06:21.730Z,15.81
2022-08-07T21:09:15.588Z,15.55
2022-08-07T21:11:51.462Z,15.62
2022-08-07T21:14:34.172Z,15.66
2022-08-07T21:18:06.491Z,15.58
2022-08-07T21:20:07.338Z,15.61
2022-08-07T21:22:51.399Z,15.56
2022-08-07T21:25:38.907Z,15.32
2022-08-07T21:28:49.787Z,15.47
2022-08-07T21:31:49.264Z,15.37
2022-08-07T21:34:26.761Z,15.39
2022-08-07T21:37:09.832Z,15.34
2022-08-07T21:39:48.055Z,15.38
2022-08-07T21:42:42.583Z,15.37
2022-08-07T21:46:07.763Z,15.33
2022-08-07T21:48:44.034Z,15.15
2022-08-07T21:51:32.115Z,15.16
2022-08-07T21:54:20.250Z,15.11
2022-08-07T21:56:57.941Z,15.15
2022-08-07T22:00:02.996Z,15.07
2022-08-07T22:02:32.049Z,15.10
2022-08-07T22:05:05.901Z,15.05
2022-08-07T22:07:58.939Z,15.08
2022-08-07T22:10:35.581Z,15.13
2022-08-07T22:13:13.779Z,15.13
2022-08-07T22:16:42.712Z,14.97
2022-08-07T22:19:40.923Z,15.11
2022-08-07T22:22:21.570Z,15.05
2022-08-07T22:25:08.331Z,15.08
2022-08-07T22:28:06.400Z,15.02
2022-08-07T22:30:52.689Z,15.02
2022-08-07T22:33:53.179Z,14.92
2022-08-07T22:36:38.396Z,14.88
2022-08-07T22:39:35.332Z,14.96
2022-08-07T22:42:29.595Z,14.96
2022-08-07T22:45:04.219Z,14.88
2022-08-07T22:48:00.901Z,14.92
2022-08-07T22:51:17.111Z,14.89
2022-08-07T22:54:06.976Z,14.79
2022-08-07T22:56:58.880Z,14.86
2022-08-07T22:59:53.295Z,14.84
2022-08-07T23:02:38.281Z,14.87
2022-08-07T23:06:07.587Z,14.84
2022-08-07T23:08:32.023Z,14.88
2022-08-07T23:11:24.696Z,14.89
2022-08-07T23:14:19.623Z,14.86
2022-08-07T23:17:26.661Z,14.79
2022-08-07T23:20:51.091Z,14.70
2022-08-07T23:24:05.824Z,14.56
2022-08-07T23:26:42.339Z,14.56
2022-08-07T23:30:36.063Z,14.51
2022-08-07T23:34:34.243Z,14.48
2022-08-07T23:35:56.493Z,14.44
2022-08-07T23:38:45.992Z,14.43
2022-08-07T23:42:04.336Z,14.49
2022-08-07T23:44:46.095Z,14.73
2022-08-07T23:47:30.597Z,15.10
2022-08-07T23:50:35.294Z,15.67
2022-08-07T23:53:49.533Z,15.99
2022-08-07T23:56:34.924Z,15.73
